createdAt,value
2017-11-15T00:02:07.934Z,34.27
2017-11-15T00:04:35.438Z,35.10
2017-11-15T00:07:02.949Z,37.90
2017-11-15T00:09:30.608Z,34.43
2017-11-15T00:11:58.197Z,37.07
2017-11-15T00:14:25.829Z,33.93
2017-11-15T00:16:53.329Z,34.30
2017-11-15T00:19:21.019Z,34.20
2017-11-15T00:21:48.521Z,37.00
2017-11-15T00:24:16.043Z,33.87
2017-11-15T00:26:43.557Z,34.60
2017-11-15T00:29:12.110Z,33.73
2017-11-15T00:31:39.605Z,39.00
2017-11-15T00:34:07.323Z,37.87
2017-11-15T00:36:34.823Z,36.37
2017-11-15T00:39:02.321Z,38.90
2017-11-15T00:41:29.946Z,38.60
2017-11-15T00:43:57.457Z,38.20
2017-11-15T00:46:24.965Z,40.00
2017-11-15T00:48:52.469Z,37.70
2017-11-15T00:51:20.877Z,37.80
2017-11-15T00:53:48.383Z,33.50
2017-11-15T00:56:15.889Z,38.40
2017-11-15T00:58:43.399Z,37.67
2017-11-15T01:01:11.186Z,34.90
2017-11-15T01:03:38.944Z,36.57
2017-11-15T01:06:06.466Z,40.10
2017-11-15T01:08:34.086Z,40.10
2017-11-15T01:11:01.609Z,38.33
2017-11-15T01:13:29.109Z,37.60
2017-11-15T01:15:56.618Z,34.50
2017-11-15T01:18:24.270Z,35.87
2017-11-15T01:20:51.769Z,35.20
2017-11-15T01:23:19.276Z,35.10
2017-11-15T01:25:46.780Z,37.43
2017-11-15T01:28:14.437Z,39.33
2017-11-15T01:30:42.196Z,37.43
2017-11-15T01:33:09.701Z,36.67
2017-11-15T01:35:37.204Z,30.27
2017-11-15T01:38:04.711Z,41.07
2017-11-15T01:40:33.258Z,38.53
2017-11-15T01:43:00.770Z,37.50
2017-11-15T01:45:28.450Z,39.67
2017-11-15T01:47:55.964Z,39.53
2017-11-15T01:50:23.468Z,39.03
2017-11-15T01:52:51.148Z,37.63
2017-11-15T01:55:18.654Z,42.07
2017-11-15T01:57:46.365Z,41.23
2017-11-15T02:00:13.873Z,43.50
2017-11-15T02:02:41.590Z,42.43
2017-11-15T02:05:09.211Z,40.37
2017-11-15T02:07:36.781Z,43.43
2017-11-15T02:10:04.280Z,45.80
2017-11-15T02:12:32.649Z,44.23
2017-11-15T02:15:00.592Z,46.60
2017-11-15T02:17:28.116Z,44.20
2017-11-15T02:19:55.624Z,40.00
2017-11-15T02:22:23.133Z,42.43
2017-11-15T02:24:50.643Z,43.23
2017-11-15T02:27:18.153Z,45.67
2017-11-15T02:29:46.657Z,43.13
2017-11-15T02:32:14.164Z,46.73
2017-11-15T02:34:41.678Z,47.17
2017-11-15T02:37:09.357Z,50.90
2017-11-15T02:39:36.873Z,51.13
2017-11-15T02:42:04.377Z,51.10
2017-11-15T02:44:31.931Z,49.83
2017-11-15T02:46:59.497Z,37.20
2017-11-15T02:49:27.008Z,43.23
2017-11-15T02:51:54.517Z,45.80
2017-11-15T02:54:22.161Z,45.80
2017-11-15T02:56:49.680Z,53.77
2017-11-15T02:59:17.170Z,49.73
2017-11-15T03:01:44.809Z,55.43
2017-11-15T03:04:12.318Z,51.90
2017-11-15T03:06:39.824Z,49.60
2017-11-15T03:09:07.350Z,48.97
2017-11-15T03:11:34.990Z,50.77
2017-11-15T03:14:02.500Z,49.73
2017-11-15T03:16:30.009Z,49.07
2017-11-15T03:18:57.513Z,48.50
2017-11-15T03:21:25.033Z,47.40
2017-11-15T03:23:53.486Z,43.80
2017-11-15T03:26:21.002Z,47.93
2017-11-15T03:28:48.707Z,41.23
2017-11-15T03:31:16.246Z,43.77
2017-11-15T03:33:43.755Z,35.97
2017-11-15T03:36:11.352Z,35.47
2017-11-15T03:38:38.848Z,37.40
2017-11-15T03:41:06.360Z,26.90
2017-11-15T03:43:33.857Z,25.20
2017-11-15T03:46:01.482Z,27.60
2017-11-15T03:48:28.982Z,31.53
2017-11-15T03:50:56.741Z,32.53
2017-11-15T03:53:24.240Z,28.50
2017-11-15T03:55:51.901Z,30.80
2017-11-15T03:58:19.416Z,28.27
2017-11-15T04:00:46.919Z,29.60
2017-11-15T04:03:14.444Z,27.17
2017-11-15T04:05:41.959Z,29.33
2017-11-15T04:08:09.505Z,28.40
2017-11-15T04:10:37.020Z,26.10
2017-11-15T04:13:04.521Z,28.43
2017-11-15T04:15:32.025Z,29.53
2017-11-15T04:17:59.673Z,30.23
2017-11-15T04:20:27.193Z,32.93
2017-11-15T04:22:54.689Z,31.93
2017-11-15T04:25:22.231Z,29.87
2017-11-15T04:27:49.723Z,29.50
2017-11-15T04:30:17.758Z,34.43
2017-11-15T04:32:45.338Z,36.07
2017-11-15T04:35:12.841Z,35.23
2017-11-15T04:37:40.675Z,36.93
2017-11-15T04:40:08.179Z,34.70
2017-11-15T04:42:35.749Z,36.30
2017-11-15T04:45:03.249Z,34.20
2017-11-15T04:47:30.757Z,34.50
2017-11-15T04:49:58.328Z,32.13
2017-11-15T04:52:25.893Z,28.67
2017-11-15T04:54:53.398Z,33.80
2017-11-15T04:57:20.904Z,33.37
2017-11-15T04:59:48.414Z,32.07
2017-11-15T05:02:16.684Z,28.50
2017-11-15T05:04:44.421Z,28.00
2017-11-15T05:07:11.942Z,26.97
2017-11-15T05:09:39.498Z,22.80
2017-11-15T05:12:07.043Z,24.90
2017-11-15T05:14:34.552Z,26.70
2017-11-15T05:17:02.330Z,23.67
2017-11-15T05:19:29.831Z,25.70
2017-11-15T05:21:57.720Z,23.70
2017-11-15T05:24:25.265Z,22.83
2017-11-15T05:26:52.764Z,23.60
2017-11-15T05:29:20.516Z,24.97
2017-11-15T05:31:48.032Z,25.67
2017-11-15T05:34:15.705Z,24.03
2017-11-15T05:36:43.205Z,23.20
2017-11-15T05:39:10.957Z,26.43
2017-11-15T05:41:38.457Z,26.17
2017-11-15T05:44:06.313Z,24.97
2017-11-15T05:46:33.941Z,24.37
2017-11-15T05:49:01.444Z,21.73
2017-11-15T05:51:28.941Z,24.27
2017-11-15T05:53:56.449Z,23.67
2017-11-15T05:56:24.710Z,28.33
2017-11-15T05:58:52.232Z,24.87
2017-11-15T06:01:19.731Z,28.00
2017-11-15T06:03:47.245Z,24.67
2017-11-15T06:06:14.783Z,25.20
2017-11-15T06:08:42.294Z,23.03
2017-11-15T06:11:09.871Z,27.70
2017-11-15T06:13:37.326Z,27.13
2017-11-15T06:16:04.887Z,27.97
2017-11-15T06:18:32.558Z,25.90
2017-11-15T06:21:00.215Z,26.83
2017-11-15T06:23:27.936Z,28.97
2017-11-15T06:25:55.487Z,31.00
2017-11-15T06:28:23.057Z,28.13
2017-11-15T06:30:50.666Z,27.27
2017-11-15T06:33:18.320Z,29.80
2017-11-15T06:35:45.883Z,29.17
2017-11-15T06:38:13.334Z,32.10
2017-11-15T06:40:40.841Z,26.00
2017-11-15T06:43:08.351Z,29.20
2017-11-15T06:45:36.625Z,27.57
2017-11-15T06:48:04.129Z,32.47
2017-11-15T06:50:31.641Z,35.70
2017-11-15T06:53:00.133Z,34.57
2017-11-15T06:55:27.667Z,29.97
2017-11-15T06:57:55.161Z,33.80
2017-11-15T07:00:22.828Z,29.20
2017-11-15T07:02:50.674Z,31.40
2017-11-15T07:05:18.177Z,27.50
2017-11-15T07:07:45.863Z,27.47
2017-11-15T07:10:13.432Z,29.63
2017-11-15T07:12:40.932Z,29.40
2017-11-15T07:15:08.513Z,24.57
2017-11-15T07:17:36.013Z,27.30
2017-11-15T07:20:03.520Z,27.03
2017-11-15T07:22:31.025Z,20.20
2017-11-15T07:24:59.289Z,21.87
2017-11-15T07:27:26.901Z,22.37
2017-11-15T07:29:54.408Z,26.07
2017-11-15T07:32:21.945Z,22.33
2017-11-15T07:34:49.438Z,20.43
2017-11-15T07:37:16.942Z,17.03
2017-11-15T07:39:44.548Z,22.67
2017-11-15T07:42:12.053Z,21.43
2017-11-15T07:44:39.785Z,21.90
2017-11-15T07:47:08.096Z,22.07
2017-11-15T07:49:35.668Z,20.80
2017-11-15T07:52:03.239Z,22.37
2017-11-15T07:54:30.773Z,18.10
2017-11-15T07:56:58.289Z,22.57
2017-11-15T07:59:25.801Z,21.10
2017-11-15T08:01:53.309Z,24.07
2017-11-15T08:04:21.003Z,24.10
2017-11-15T08:06:48.524Z,22.40
2017-11-15T08:09:16.244Z,27.23
2017-11-15T08:11:43.755Z,28.37
2017-11-15T08:14:11.380Z,27.90
2017-11-15T08:16:38.901Z,31.63
2017-11-15T08:19:06.400Z,25.47
2017-11-15T08:21:34.109Z,26.73
2017-11-15T08:24:01.604Z,31.80
2017-11-15T08:26:29.134Z,28.90
2017-11-15T08:28:56.636Z,29.27
2017-11-15T08:31:24.161Z,26.70
2017-11-15T08:33:51.698Z,31.10
2017-11-15T08:36:19.186Z,27.73
2017-11-15T08:38:46.693Z,27.80
2017-11-15T08:41:14.413Z,25.83
2017-11-15T08:43:41.921Z,28.00
2017-11-15T08:46:09.631Z,23.03
2017-11-15T08:48:37.138Z,22.80
2017-11-15T08:51:04.668Z,23.07
2017-11-15T08:53:32.181Z,26.20
2017-11-15T08:55:59.761Z,25.37
2017-11-15T08:58:27.265Z,25.87
2017-11-15T09:00:54.775Z,27.13
2017-11-15T09:03:23.184Z,24.60
2017-11-15T09:05:51.465Z,24.03
2017-11-15T09:08:19.186Z,25.10
2017-11-15T09:10:46.693Z,23.83
2017-11-15T09:13:14.657Z,23.63
2017-11-15T09:15:42.168Z,22.90
2017-11-15T09:18:09.801Z,18.40
2017-11-15T09:20:37.301Z,18.37
2017-11-15T09:23:04.838Z,20.93
2017-11-15T09:25:32.336Z,21.87
2017-11-15T09:27:59.992Z,20.53
2017-11-15T09:30:27.489Z,22.50
2017-11-15T09:32:54.980Z,21.87
2017-11-15T09:35:22.494Z,20.00
2017-11-15T09:37:49.984Z,22.57
2017-11-15T09:40:17.490Z,21.40
2017-11-15T09:42:45.757Z,22.13
2017-11-15T09:45:13.489Z,19.30
2017-11-15T09:47:40.988Z,22.60
2017-11-15T09:50:08.493Z,20.43
2017-11-15T09:52:35.996Z,21.00
2017-11-15T09:55:04.528Z,18.87
2017-11-15T09:57:32.135Z,18.43
2017-11-15T09:59:59.642Z,18.27
2017-11-15T10:02:27.192Z,20.77
2017-11-15T10:04:54.710Z,21.40
2017-11-15T10:07:22.485Z,22.27
2017-11-15T10:09:49.989Z,20.43
2017-11-15T10:12:17.489Z,21.53
2017-11-15T10:14:44.993Z,21.33
2017-11-15T10:17:12.586Z,23.10
2017-11-15T10:19:40.093Z,22.03
2017-11-15T10:22:07.602Z,23.60
2017-11-15T10:24:35.126Z,26.03
2017-11-15T10:27:02.626Z,26.37
2017-11-15T10:29:30.166Z,24.63
2017-11-15T10:31:57.933Z,28.00
2017-11-15T10:34:25.442Z,28.13
2017-11-15T10:36:52.948Z,30.90
2017-11-15T10:39:20.609Z,30.20
2017-11-15T10:41:48.113Z,32.63
2017-11-15T10:44:15.726Z,32.70
2017-11-15T10:46:43.226Z,30.83
2017-11-15T10:49:10.728Z,34.33
2017-11-15T10:51:38.229Z,36.23
2017-11-15T10:54:05.733Z,36.00
2017-11-15T10:56:33.242Z,34.03
2017-11-15T10:59:00.763Z,30.80
2017-11-15T11:01:28.269Z,40.20
2017-11-15T11:03:55.782Z,37.23
2017-11-15T11:06:23.293Z,34.77
2017-11-15T11:08:50.925Z,31.40
2017-11-15T11:11:18.430Z,34.67
2017-11-15T11:13:46.569Z,38.27
2017-11-15T11:16:14.065Z,37.37
2017-11-15T11:18:41.762Z,34.00
2017-11-15T11:21:09.277Z,34.17
2017-11-15T11:23:36.784Z,32.97
2017-11-15T11:26:04.425Z,35.60
2017-11-15T11:28:32.189Z,30.70
2017-11-15T11:30:59.689Z,32.10
2017-11-15T11:33:27.205Z,35.03
2017-11-15T11:35:54.869Z,33.07
2017-11-15T11:38:22.437Z,32.00
2017-11-15T11:40:50.356Z,34.23
2017-11-15T11:43:18.169Z,32.63
2017-11-15T11:45:45.669Z,32.73
2017-11-15T11:48:13.353Z,33.43
2017-11-15T11:50:40.850Z,30.60
2017-11-15T11:53:08.369Z,30.80
2017-11-15T11:55:35.870Z,31.70
2017-11-15T11:58:03.731Z,27.80
2017-11-15T12:00:31.274Z,30.00
2017-11-15T12:02:58.797Z,34.40
2017-11-15T12:05:26.345Z,29.33
2017-11-15T12:07:53.850Z,32.30
2017-11-15T12:10:21.352Z,26.77
2017-11-15T12:12:48.882Z,29.50
2017-11-15T12:15:16.386Z,29.10
2017-11-15T12:17:44.093Z,27.57
2017-11-15T12:20:11.823Z,29.40
2017-11-15T12:22:39.951Z,31.27
2017-11-15T12:25:07.453Z,29.07
2017-11-15T12:27:34.960Z,28.30
2017-11-15T12:30:02.789Z,27.50
2017-11-15T12:32:30.297Z,25.43
2017-11-15T12:34:57.817Z,28.10
2017-11-15T12:37:25.326Z,27.50
2017-11-15T12:39:52.831Z,26.17
2017-11-15T12:42:20.496Z,25.30
2017-11-15T12:44:48.038Z,25.13
2017-11-15T12:47:15.543Z,24.40
2017-11-15T12:49:43.829Z,27.93
2017-11-15T12:52:12.054Z,26.13
2017-11-15T12:54:39.620Z,24.07
2017-11-15T12:57:07.123Z,24.67
2017-11-15T12:59:34.639Z,21.50
2017-11-15T13:02:02.143Z,20.53
2017-11-15T13:04:29.662Z,20.23
2017-11-15T13:06:57.216Z,18.60
2017-11-15T13:09:24.713Z,21.10
2017-11-15T13:11:52.389Z,20.30
2017-11-15T13:14:19.893Z,19.87
2017-11-15T13:16:48.914Z,20.63
2017-11-15T13:19:17.187Z,20.67
2017-11-15T13:21:44.709Z,20.40
2017-11-15T13:24:12.224Z,19.60
2017-11-15T13:26:39.726Z,20.37
2017-11-15T13:29:07.385Z,20.10
2017-11-15T13:31:34.893Z,20.97
2017-11-15T13:34:02.997Z,17.27
2017-11-15T13:36:30.497Z,15.63
2017-11-15T13:38:58.150Z,17.73
2017-11-15T13:41:25.909Z,15.57
2017-11-15T13:43:53.658Z,15.87
2017-11-15T13:46:21.171Z,15.50
2017-11-15T13:48:48.877Z,15.93
2017-11-15T13:51:16.645Z,14.70
2017-11-15T13:53:44.149Z,15.27
2017-11-15T13:56:11.661Z,14.63
2017-11-15T13:58:39.812Z,15.30
2017-11-15T14:01:07.416Z,14.80
2017-11-15T14:03:34.920Z,14.97
2017-11-15T14:06:02.636Z,15.30
2017-11-15T14:08:30.134Z,14.73
2017-11-15T14:10:57.647Z,15.17
2017-11-15T14:13:25.261Z,15.77
2017-11-15T14:15:52.779Z,15.40
2017-11-15T14:18:21.196Z,14.80
2017-11-15T14:20:48.731Z,15.77
2017-11-15T14:23:17.136Z,14.30
2017-11-15T14:25:44.718Z,15.90
2017-11-15T14:28:12.487Z,14.70
2017-11-15T14:30:40.005Z,16.37
2017-11-15T14:33:07.661Z,16.73
2017-11-15T14:35:35.179Z,17.50
2017-11-15T14:38:02.938Z,15.30
2017-11-15T14:40:30.468Z,15.70
2017-11-15T14:42:57.986Z,14.83
2017-11-15T14:45:26.521Z,15.70
2017-11-15T14:47:54.043Z,17.30
2017-11-15T14:50:21.557Z,15.87
2017-11-15T14:52:49.586Z,16.03
2017-11-15T14:55:17.101Z,16.20
2017-11-15T14:57:45.377Z,15.23
2017-11-15T15:00:12.894Z,14.83
2017-11-15T15:02:40.520Z,15.80
2017-11-15T15:05:08.316Z,17.40
2017-11-15T15:07:35.833Z,15.40
2017-11-15T15:10:03.333Z,17.30
2017-11-15T15:12:30.998Z,15.67
2017-11-15T15:14:59.373Z,16.67
2017-11-15T15:17:27.138Z,17.23
2017-11-15T15:19:54.655Z,17.40
2017-11-15T15:22:22.371Z,16.10
2017-11-15T15:24:50.133Z,19.63
2017-11-15T15:27:17.890Z,19.57
2017-11-15T15:29:45.649Z,17.87
2017-11-15T15:32:13.169Z,18.17
2017-11-15T15:34:40.678Z,19.07
2017-11-15T15:37:08.197Z,17.00
2017-11-15T15:39:35.758Z,18.43
2017-11-15T15:42:03.475Z,19.23
2017-11-15T15:44:30.982Z,17.13
2017-11-15T15:46:58.505Z,18.67
2017-11-15T15:49:26.246Z,18.63
2017-11-15T15:51:53.746Z,18.63
2017-11-15T15:54:21.419Z,17.47
2017-11-15T15:56:48.957Z,19.30
2017-11-15T15:59:16.461Z,17.30
2017-11-15T16:01:43.977Z,17.63
2017-11-15T16:04:11.497Z,18.47
2017-11-15T16:06:39.004Z,19.43
2017-11-15T16:09:06.541Z,17.20
2017-11-15T16:11:34.228Z,17.47
2017-11-15T16:14:01.796Z,17.90
2017-11-15T16:16:29.305Z,17.70
2017-11-15T16:18:57.594Z,17.40
2017-11-15T16:21:25.561Z,17.37
2017-11-15T16:23:53.069Z,19.40
2017-11-15T16:26:20.610Z,19.30
2017-11-15T16:28:48.131Z,17.60
2017-11-15T16:31:16.409Z,16.90
2017-11-15T16:33:43.916Z,15.70
2017-11-15T16:36:11.586Z,16.80
2017-11-15T16:38:39.084Z,18.03
2017-11-15T16:41:06.877Z,16.30
2017-11-15T16:43:34.436Z,16.70
2017-11-15T16:46:02.313Z,16.60
2017-11-15T16:48:30.034Z,17.50
2017-11-15T16:50:57.541Z,17.67
2017-11-15T16:53:25.040Z,17.37
2017-11-15T16:55:52.765Z,19.83
2017-11-15T16:58:20.284Z,19.30
2017-11-15T17:00:48.597Z,24.50
2017-11-15T17:03:16.361Z,23.00
2017-11-15T17:05:43.877Z,20.97
2017-11-15T17:08:11.373Z,23.47
2017-11-15T17:10:38.897Z,23.30
2017-11-15T17:13:07.033Z,25.27
2017-11-15T17:15:34.548Z,25.53
2017-11-15T17:18:02.041Z,26.60
2017-11-15T17:20:29.557Z,27.00
2017-11-15T17:22:58.144Z,25.23
2017-11-15T17:25:25.650Z,24.43
2017-11-15T17:27:53.157Z,27.20
2017-11-15T17:30:20.668Z,26.60
2017-11-15T17:32:49.884Z,27.53
2017-11-15T17:35:17.398Z,26.00
2017-11-15T17:37:44.892Z,26.53
2017-11-15T17:40:13.442Z,26.60
2017-11-15T17:42:40.949Z,25.80
2017-11-15T17:45:08.460Z,28.40
2017-11-15T17:47:36.121Z,25.60
2017-11-15T17:50:03.663Z,26.80
2017-11-15T17:52:31.330Z,24.47
2017-11-15T17:54:58.837Z,25.57
2017-11-15T17:57:26.513Z,26.67
2017-11-15T17:59:54.013Z,27.50
2017-11-15T18:02:21.539Z,25.57
2017-11-15T18:04:49.273Z,27.67
2017-11-15T18:07:17.018Z,26.47
2017-11-15T18:09:44.750Z,27.57
2017-11-15T18:12:12.517Z,25.00
2017-11-15T18:14:40.023Z,25.40
2017-11-15T18:17:07.529Z,28.60
2017-11-15T18:19:35.034Z,25.67
2017-11-15T18:22:03.507Z,26.47
2017-11-15T18:24:31.009Z,28.37
2017-11-15T18:26:58.512Z,28.07
2017-11-15T18:29:26.019Z,27.60
2017-11-15T18:31:53.524Z,26.30
2017-11-15T18:34:21.034Z,25.93
2017-11-15T18:36:48.537Z,25.77
2017-11-15T18:39:16.050Z,27.87
2017-11-15T18:41:43.849Z,26.90
2017-11-15T18:44:11.354Z,25.83
2017-11-15T18:46:39.610Z,24.83
2017-11-15T18:49:07.127Z,25.43
2017-11-15T18:51:34.630Z,26.93
2017-11-15T18:54:02.169Z,29.40
2017-11-15T18:56:29.807Z,29.50
2017-11-15T18:58:57.342Z,31.77
2017-11-15T19:01:25.250Z,27.13
2017-11-15T19:03:52.795Z,34.97
2017-11-15T19:06:20.319Z,40.50
2017-11-15T19:08:47.846Z,30.40
2017-11-15T19:11:16.109Z,31.03
2017-11-15T19:13:43.621Z,29.43
2017-11-15T19:16:11.297Z,28.60
2017-11-15T19:18:38.818Z,31.83
2017-11-15T19:21:06.519Z,33.87
2017-11-15T19:23:34.028Z,33.60
2017-11-15T19:26:01.720Z,33.00
2017-11-15T19:28:29.237Z,33.17
2017-11-15T19:30:56.863Z,37.17
2017-11-15T19:33:24.375Z,32.93
2017-11-15T19:35:51.873Z,35.53
2017-11-15T19:38:19.521Z,34.27
2017-11-15T19:40:47.268Z,31.93
2017-11-15T19:43:14.756Z,35.47
2017-11-15T19:45:42.285Z,34.80
2017-11-15T19:48:09.772Z,31.17
2017-11-15T19:50:37.300Z,34.17
2017-11-15T19:53:04.985Z,32.23
2017-11-15T19:55:32.489Z,33.30
2017-11-15T19:57:59.984Z,31.60
2017-11-15T20:00:27.621Z,26.13
2017-11-15T20:02:55.117Z,27.53
2017-11-15T20:05:22.621Z,28.13
2017-11-15T20:07:50.129Z,32.60
2017-11-15T20:10:17.790Z,31.57
2017-11-15T20:12:45.297Z,37.53
2017-11-15T20:15:13.022Z,33.00
2017-11-15T20:17:40.528Z,29.23
2017-11-15T20:20:08.232Z,29.60
2017-11-15T20:22:35.750Z,26.50
2017-11-15T20:25:03.317Z,25.00
2017-11-15T20:27:30.833Z,25.60
2017-11-15T20:29:58.378Z,27.13
2017-11-15T20:32:25.949Z,28.50
2017-11-15T20:34:53.549Z,25.20
2017-11-15T20:37:21.061Z,26.60
2017-11-15T20:39:48.805Z,28.93
2017-11-15T20:42:16.317Z,28.30
2017-11-15T20:44:43.826Z,30.00
2017-11-15T20:47:12.093Z,27.30
2017-11-15T20:49:39.856Z,27.47
2017-11-15T20:52:07.360Z,27.90
2017-11-15T20:54:35.081Z,27.33
2017-11-15T20:57:02.656Z,28.27
2017-11-15T20:59:30.173Z,27.03
2017-11-15T21:01:57.670Z,27.83
2017-11-15T21:04:25.486Z,28.97
2017-11-15T21:06:53.029Z,27.43
2017-11-15T21:09:20.742Z,27.07
2017-11-15T21:11:48.248Z,26.60
2017-11-15T21:14:15.937Z,28.77
2017-11-15T21:16:43.445Z,31.27
2017-11-15T21:19:10.953Z,28.23
2017-11-15T21:21:38.662Z,29.37
2017-11-15T21:24:06.153Z,29.60
2017-11-15T21:26:33.689Z,31.73
2017-11-15T21:29:01.958Z,35.63
2017-11-15T21:31:29.693Z,27.87
2017-11-15T21:33:57.200Z,29.67
2017-11-15T21:36:24.713Z,31.33
2017-11-15T21:38:52.369Z,30.30
2017-11-15T21:41:19.903Z,28.00
2017-11-15T21:43:47.393Z,28.53
2017-11-15T21:46:15.049Z,27.63
2017-11-15T21:48:42.549Z,30.77
2017-11-15T21:51:10.256Z,29.30
2017-11-15T21:53:38.029Z,27.73
2017-11-15T21:56:05.531Z,29.37
2017-11-15T21:58:33.255Z,29.73
2017-11-15T22:01:01.159Z,28.63
2017-11-15T22:03:29.437Z,28.77
2017-11-15T22:05:56.932Z,31.07
2017-11-15T22:08:24.471Z,30.20
2017-11-15T22:10:52.065Z,30.57
2017-11-15T22:13:19.565Z,37.33
2017-11-15T22:15:47.289Z,27.00
2017-11-15T22:18:14.784Z,33.40
2017-11-15T22:20:42.308Z,33.57
2017-11-15T22:23:09.801Z,31.40
2017-11-15T22:25:38.082Z,33.67
2017-11-15T22:28:05.598Z,32.93
2017-11-15T22:30:33.228Z,35.20
2017-11-15T22:33:00.727Z,34.00
2017-11-15T22:35:28.244Z,30.37
2017-11-15T22:37:55.929Z,28.43
2017-11-15T22:40:23.435Z,29.57
2017-11-15T22:42:51.113Z,27.50
2017-11-15T22:45:18.736Z,27.83
2017-11-15T22:47:46.249Z,28.90
2017-11-15T22:50:13.838Z,29.90
2017-11-15T22:52:41.347Z,29.60
2017-11-15T22:55:09.049Z,31.27
2017-11-15T22:57:36.549Z,27.73
2017-11-15T23:00:04.053Z,29.37
2017-11-15T23:02:31.716Z,28.73
2017-11-15T23:04:59.236Z,25.30
2017-11-15T23:07:26.937Z,29.30
2017-11-15T23:09:54.703Z,27.93
2017-11-15T23:12:22.213Z,28.37
2017-11-15T23:14:49.758Z,27.90
2017-11-15T23:17:18.024Z,27.93
2017-11-15T23:19:45.538Z,30.30
2017-11-15T23:22:13.177Z,27.83
2017-11-15T23:24:41.097Z,30.37
2017-11-15T23:27:08.600Z,29.27
2017-11-15T23:29:36.105Z,27.73
2017-11-15T23:32:04.897Z,28.67
2017-11-15T23:34:32.394Z,29.33
2017-11-15T23:36:59.903Z,27.00
2017-11-15T23:39:27.536Z,29.60
2017-11-15T23:41:55.040Z,28.57
2017-11-15T23:44:22.545Z,29.30
2017-11-15T23:46:50.047Z,27.93
2017-11-15T23:49:17.561Z,26.40
2017-11-15T23:51:45.060Z,29.50
2017-11-15T23:54:12.579Z,28.20
2017-11-15T23:56:40.085Z,29.97
2017-11-15T23:59:07.592Z,27.43
